createdAt,value
2023-03-16T00:00:56.721Z,101139.09
2023-03-16T00:03:25.963Z,101139.75
2023-03-16T00:05:55.117Z,101142.06
2023-03-16T00:08:22.893Z,101141.78
2023-03-16T00:10:54.138Z,101140.63
2023-03-16T00:13:24.781Z,101139.28
2023-03-16T00:15:53.243Z,101141.06
2023-03-16T00:18:22.371Z,101136.56
2023-03-16T00:20:56.806Z,101126.06
2023-03-16T00:23:27.178Z,101129.81
2023-03-16T00:25:55.729Z,101119.50
2023-03-16T00:28:23.986Z,101122.22
2023-03-16T00:30:52.135Z,101114.09
2023-03-16T00:33:20.004Z,101114.44
2023-03-16T00:35:50.486Z,101099.56
2023-03-16T00:38:21.798Z,101108.09
2023-03-16T00:40:51.301Z,101099.38
2023-03-16T00:43:19.170Z,101108.84
2023-03-16T00:45:47.053Z,101110.63
2023-03-16T00:48:14.888Z,101107.59
2023-03-16T00:50:43.336Z,101120.00
2023-03-16T00:53:11.031Z,101116.28
2023-03-16T00:55:40.113Z,101125.66
2023-03-16T00:58:08.124Z,101120.34
2023-03-16T01:00:36.132Z,101116.72
2023-03-16T01:03:04.014Z,101111.31
2023-03-16T01:05:33.466Z,101111.19
2023-03-16T01:08:02.812Z,101122.72
2023-03-16T01:10:30.649Z,101127.03
2023-03-16T01:12:59.768Z,101122.81
2023-03-16T01:15:27.585Z,101122.53
2023-03-16T01:17:55.524Z,101097.25
2023-03-16T01:20:23.728Z,101091.44
2023-03-16T01:22:51.903Z,101098.53
2023-03-16T01:25:20.597Z,101095.31
2023-03-16T01:27:48.452Z,101092.63
2023-03-16T01:30:17.607Z,101080.97
2023-03-16T01:32:45.833Z,101062.03
2023-03-16T01:35:14.889Z,101081.13
2023-03-16T01:37:42.762Z,101081.28
2023-03-16T01:40:16.508Z,101051.41
2023-03-16T01:42:48.644Z,101074.09
2023-03-16T01:45:54.842Z,101067.00
2023-03-16T01:48:27.369Z,101054.75
2023-03-16T01:50:57.857Z,101059.22
2023-03-16T01:53:27.547Z,101045.97
2023-03-16T01:55:56.080Z,101044.44
2023-03-16T01:58:25.417Z,101033.97
2023-03-16T02:00:53.947Z,101025.50
2023-03-16T02:03:27.588Z,101038.34
2023-03-16T02:06:04.188Z,101026.38
2023-03-16T02:08:34.719Z,101026.47
2023-03-16T02:11:02.903Z,101016.66
2023-03-16T02:13:43.512Z,101023.53
2023-03-16T02:16:14.454Z,101023.25
2023-03-16T02:18:43.688Z,101022.13
2023-03-16T02:21:20.028Z,101022.34
2023-03-16T02:23:50.775Z,101020.28
2023-03-16T02:26:26.590Z,101022.63
2023-03-16T02:29:07.409Z,101017.00
2023-03-16T02:31:36.579Z,101006.41
2023-03-16T02:34:05.707Z,100999.97
2023-03-16T02:36:34.883Z,100996.44
2023-03-16T02:39:02.797Z,100994.81
2023-03-16T02:41:35.656Z,101003.44
2023-03-16T02:44:10.842Z,100982.28
2023-03-16T02:46:43.438Z,100994.91
2023-03-16T02:49:17.324Z,100997.28
2023-03-16T02:51:46.580Z,100998.19
2023-03-16T02:54:14.878Z,100991.28
2023-03-16T02:56:42.969Z,100986.13
2023-03-16T02:59:13.134Z,100987.06
2023-03-16T03:01:42.321Z,100975.72
2023-03-16T03:04:11.349Z,100955.16
2023-03-16T03:06:39.098Z,100975.91
2023-03-16T03:09:07.179Z,100976.66
2023-03-16T03:11:35.405Z,100977.88
2023-03-16T03:14:03.864Z,100983.47
2023-03-16T03:16:32.514Z,100967.44
2023-03-16T03:19:02.484Z,100977.22
2023-03-16T03:21:35.321Z,100975.53
2023-03-16T03:24:03.047Z,100965.72
2023-03-16T03:26:30.880Z,100958.88
2023-03-16T03:29:00.799Z,100957.75
2023-03-16T03:31:28.648Z,100963.00
2023-03-16T03:33:56.492Z,100964.88
2023-03-16T03:36:25.630Z,100975.16
2023-03-16T03:38:54.789Z,100953.03
2023-03-16T03:41:23.345Z,100968.41
2023-03-16T03:43:52.709Z,100964.75
2023-03-16T03:46:20.736Z,100965.84
2023-03-16T03:48:48.537Z,100963.97
2023-03-16T03:51:16.258Z,100962.97
2023-03-16T03:53:56.449Z,100962.22
2023-03-16T03:56:38.402Z,100966.44
2023-03-16T03:59:10.946Z,100955.28
2023-03-16T04:02:05.229Z,100960.53
2023-03-16T04:04:50.380Z,100946.25
2023-03-16T04:07:18.480Z,100931.75
2023-03-16T04:09:48.803Z,100958.66
2023-03-16T04:12:28.098Z,100960.53
2023-03-16T04:14:56.385Z,100960.88
2023-03-16T04:17:26.264Z,100956.63
2023-03-16T04:19:56.516Z,100953.00
2023-03-16T04:22:25.340Z,100956.47
2023-03-16T04:24:54.394Z,100944.97
2023-03-16T04:27:23.839Z,100940.50
2023-03-16T04:29:55.747Z,100940.59
2023-03-16T04:32:26.342Z,100937.88
2023-03-16T04:34:56.474Z,100925.88
2023-03-16T04:37:32.093Z,100929.25
2023-03-16T04:40:10.862Z,100923.84
2023-03-16T04:42:39.943Z,100923.75
2023-03-16T04:45:10.280Z,100914.69
2023-03-16T04:47:38.395Z,100914.69
2023-03-16T04:50:07.753Z,100917.31
2023-03-16T04:52:36.428Z,100908.69
2023-03-16T04:55:06.930Z,100913.13
2023-03-16T04:57:35.990Z,100916.94
2023-03-16T05:00:11.696Z,100905.25
2023-03-16T05:02:46.975Z,100907.75
2023-03-16T05:05:15.411Z,100910.28
2023-03-16T05:07:44.942Z,100907.75
2023-03-16T05:10:16.421Z,100904.50
2023-03-16T05:12:44.229Z,100906.81
2023-03-16T05:15:13.765Z,100903.19
2023-03-16T05:17:43.697Z,100908.69
2023-03-16T05:20:16.401Z,100908.69
2023-03-16T05:22:50.292Z,100903.44
2023-03-16T05:25:27.324Z,100906.06
2023-03-16T05:27:58.496Z,100903.94
2023-03-16T05:30:47.371Z,100910.28
2023-03-16T05:33:21.625Z,100901.41
2023-03-16T05:35:53.282Z,100903.09
2023-03-16T05:38:21.505Z,100907.59
2023-03-16T05:40:53.215Z,100907.75
2023-03-16T05:43:42.198Z,100898.44
2023-03-16T05:46:11.198Z,100905.38
2023-03-16T05:48:39.287Z,100910.59
2023-03-16T05:51:08.871Z,100898.03
2023-03-16T05:53:37.571Z,100908.75
2023-03-16T05:56:14.000Z,100912.47
2023-03-16T05:58:44.344Z,100911.44
2023-03-16T06:01:13.313Z,100906.28
2023-03-16T06:03:43.312Z,100917.16
2023-03-16T06:06:16.866Z,100913.97
2023-03-16T06:08:54.869Z,100922.56
2023-03-16T06:11:26.724Z,100925.31
2023-03-16T06:13:57.794Z,100917.16
2023-03-16T06:16:25.693Z,100916.03
2023-03-16T06:18:53.501Z,100924.25
2023-03-16T06:21:21.368Z,100920.69
2023-03-16T06:23:51.681Z,100913.22
2023-03-16T06:26:21.449Z,100910.22
2023-03-16T06:28:51.905Z,100914.94
2023-03-16T06:31:20.150Z,100917.16
2023-03-16T06:33:48.106Z,100918.84
2023-03-16T06:36:16.017Z,100924.66
2023-03-16T06:38:48.507Z,100919.59
2023-03-16T06:41:26.346Z,100920.09
2023-03-16T06:43:55.653Z,100916.06
2023-03-16T06:46:23.578Z,100919.78
2023-03-16T06:48:51.836Z,100921.13
2023-03-16T06:51:20.607Z,100911.16
2023-03-16T06:53:49.354Z,100918.09
2023-03-16T06:56:17.792Z,100930.38
2023-03-16T06:58:47.248Z,100918.31
2023-03-16T07:01:17.500Z,100933.19
2023-03-16T07:03:46.762Z,100932.63
2023-03-16T07:06:34.872Z,100937.78
2023-03-16T07:09:04.803Z,100936.47
2023-03-16T07:11:33.473Z,100921.47
2023-03-16T07:14:01.591Z,100912.84
2023-03-16T07:16:33.075Z,100934.22
2023-03-16T07:19:03.830Z,100929.72
2023-03-16T07:21:39.294Z,100932.16
2023-03-16T07:24:11.502Z,100934.97
2023-03-16T07:26:39.758Z,100910.03
2023-03-16T07:29:09.688Z,100932.34
2023-03-16T07:31:39.719Z,100940.56
2023-03-16T07:34:15.468Z,100937.47
2023-03-16T07:36:48.757Z,100935.88
2023-03-16T07:39:17.791Z,100945.06
2023-03-16T07:41:47.367Z,100922.38
2023-03-16T07:44:18.022Z,100929.84
2023-03-16T07:46:51.625Z,100933.13
2023-03-16T07:49:21.206Z,100931.69
2023-03-16T07:51:52.300Z,100939.22
2023-03-16T07:54:24.743Z,100938.09
2023-03-16T07:56:52.598Z,100938.44
2023-03-16T07:59:32.395Z,100940.13
2023-03-16T08:02:02.235Z,100919.13
2023-03-16T08:04:33.137Z,100897.78
2023-03-16T08:07:02.216Z,100925.72
2023-03-16T08:09:43.217Z,100921.13
2023-03-16T08:12:13.998Z,100925.97
2023-03-16T08:14:41.838Z,100922.19
2023-03-16T08:17:19.097Z,100928.72
2023-03-16T08:19:48.887Z,100928.72
2023-03-16T08:22:17.106Z,100936.75
2023-03-16T08:24:47.578Z,100937.69
2023-03-16T08:27:19.582Z,100928.97
2023-03-16T08:29:53.811Z,100927.69
2023-03-16T08:32:26.051Z,100926.75
2023-03-16T08:34:54.702Z,100926.47
2023-03-16T08:37:24.120Z,100908.59
2023-03-16T08:39:54.412Z,100921.66
2023-03-16T08:42:23.619Z,100924.19
2023-03-16T08:44:56.529Z,100923.13
2023-03-16T08:47:26.479Z,100924.69
2023-03-16T08:49:55.234Z,100924.53
2023-03-16T08:52:23.631Z,100921.03
2023-03-16T08:55:02.276Z,100923.84
2023-03-16T08:57:30.992Z,100918.13
2023-03-16T08:59:58.704Z,100925.44
2023-03-16T09:02:27.848Z,100921.06
2023-03-16T09:04:56.332Z,100916.16
2023-03-16T09:07:24.196Z,100921.91
2023-03-16T09:09:52.711Z,100916.88
2023-03-16T09:12:20.620Z,100918.97
2023-03-16T09:14:49.006Z,100910.25
2023-03-16T09:17:16.934Z,100919.81
2023-03-16T09:19:51.737Z,100922.34
2023-03-16T09:22:20.531Z,100917.81
2023-03-16T09:24:49.629Z,100905.63
2023-03-16T09:27:18.090Z,100916.03
2023-03-16T09:29:46.618Z,100914.22
2023-03-16T09:32:15.289Z,100912.41
2023-03-16T09:34:43.076Z,100906.28
2023-03-16T09:37:12.263Z,100906.25
2023-03-16T09:39:40.385Z,100897.59
2023-03-16T09:42:17.832Z,100898.81
2023-03-16T09:44:57.434Z,100899.66
2023-03-16T09:47:29.567Z,100892.25
2023-03-16T09:50:00.018Z,100885.94
2023-03-16T09:52:36.332Z,100880.47
2023-03-16T09:55:10.195Z,100869.91
2023-03-16T09:57:41.905Z,100875.97
2023-03-16T10:00:18.361Z,100866.38
2023-03-16T10:02:59.946Z,100864.69
2023-03-16T10:05:28.289Z,100858.91
2023-03-16T10:08:09.054Z,100864.19
2023-03-16T10:10:56.256Z,100861.22
2023-03-16T10:13:31.644Z,100857.13
2023-03-16T10:16:05.003Z,100838.97
2023-03-16T10:18:39.814Z,100862.50
2023-03-16T10:21:14.212Z,100866.81
2023-03-16T10:23:44.598Z,100854.38
2023-03-16T10:26:15.963Z,100834.84
2023-03-16T10:28:45.571Z,100858.47
2023-03-16T10:31:18.080Z,100855.44
2023-03-16T10:33:49.713Z,100844.19
2023-03-16T10:36:31.237Z,100847.53
2023-03-16T10:39:02.890Z,100854.50
2023-03-16T10:41:33.359Z,100864.44
2023-03-16T10:44:07.492Z,100852.31
2023-03-16T10:46:40.852Z,100847.22
2023-03-16T10:49:22.368Z,100852.94
2023-03-16T10:51:51.344Z,100845.75
2023-03-16T10:54:28.464Z,100819.38
2023-03-16T10:56:56.669Z,100834.34
2023-03-16T10:59:34.080Z,100835.16
2023-03-16T11:02:05.397Z,100825.31
2023-03-16T11:04:34.128Z,100823.63
2023-03-16T11:07:01.832Z,100818.72
2023-03-16T11:09:35.848Z,100815.34
2023-03-16T11:12:16.069Z,100796.75
2023-03-16T11:14:45.713Z,100789.19
2023-03-16T11:17:17.969Z,100804.19
2023-03-16T11:19:52.648Z,100797.34
2023-03-16T11:22:23.094Z,100807.75
2023-03-16T11:24:57.537Z,100808.78
2023-03-16T11:27:27.755Z,100803.53
2023-03-16T11:30:05.928Z,100804.09
2023-03-16T11:32:37.440Z,100782.94
2023-03-16T11:35:14.566Z,100770.38
2023-03-16T11:37:57.589Z,100745.69
2023-03-16T11:40:40.122Z,100775.38
2023-03-16T11:43:27.127Z,100778.69
2023-03-16T11:46:10.380Z,100775.34
2023-03-16T11:48:43.823Z,100770.19
2023-03-16T11:51:22.792Z,100766.63
2023-03-16T11:54:03.600Z,100767.25
2023-03-16T11:56:38.120Z,100763.53
2023-03-16T11:59:28.429Z,100767.81
2023-03-16T12:02:11.662Z,100760.34
2023-03-16T12:04:57.279Z,100763.19
2023-03-16T12:07:41.262Z,100754.38
2023-03-16T12:10:23.705Z,100765.34
2023-03-16T12:13:12.683Z,100760.78
2023-03-16T12:15:44.997Z,100746.75
2023-03-16T12:18:18.227Z,100750.84
2023-03-16T12:20:51.955Z,100737.50
2023-03-16T12:23:23.852Z,100729.63
2023-03-16T12:25:54.429Z,100724.50
2023-03-16T12:28:25.981Z,100712.63
2023-03-16T12:31:03.248Z,100698.75
2023-03-16T12:33:47.787Z,100699.50
2023-03-16T12:36:50.934Z,100693.69
2023-03-16T12:39:26.255Z,100693.34
2023-03-16T12:42:04.967Z,100676.00
2023-03-16T12:44:39.924Z,100684.94
2023-03-16T12:47:16.146Z,100679.03
2023-03-16T12:49:44.172Z,100667.44
2023-03-16T12:52:14.494Z,100665.25
2023-03-16T12:54:52.873Z,100665.53
2023-03-16T12:57:25.178Z,100660.34
2023-03-16T12:59:58.583Z,100624.28
2023-03-16T13:02:30.632Z,100645.56
2023-03-16T13:05:01.980Z,100644.03
2023-03-16T13:07:33.342Z,100645.13
2023-03-16T13:10:08.803Z,100635.91
2023-03-16T13:12:37.871Z,100607.94
2023-03-16T13:15:27.543Z,100624.16
2023-03-16T13:18:23.107Z,100622.66
2023-03-16T13:20:55.744Z,100611.25
2023-03-16T13:23:27.398Z,100621.72
2023-03-16T13:26:14.543Z,100611.53
2023-03-16T13:28:45.250Z,100606.78
2023-03-16T13:31:27.369Z,100606.28
2023-03-16T13:33:56.896Z,100605.97
2023-03-16T13:36:27.101Z,100602.47
2023-03-16T13:39:05.133Z,100599.09
2023-03-16T13:41:32.925Z,100606.81
2023-03-16T13:44:00.625Z,100598.28
2023-03-16T13:46:31.708Z,100592.94
2023-03-16T13:49:01.147Z,100579.59
2023-03-16T13:51:31.997Z,100571.59
2023-03-16T13:53:59.837Z,100567.81
2023-03-16T13:56:29.392Z,100567.84
2023-03-16T13:58:59.456Z,100549.69
2023-03-16T14:01:32.703Z,100554.19
2023-03-16T14:04:05.658Z,100552.47
2023-03-16T14:06:35.300Z,100551.31
2023-03-16T14:09:06.377Z,100553.19
2023-03-16T14:11:34.780Z,100538.84
2023-03-16T14:14:14.548Z,100541.66
2023-03-16T14:16:44.675Z,100516.00
2023-03-16T14:19:19.191Z,100523.50
2023-03-16T14:21:47.453Z,100520.59
2023-03-16T14:24:30.750Z,100517.03
2023-03-16T14:26:59.207Z,100513.00
2023-03-16T14:29:30.491Z,100496.53
2023-03-16T14:32:00.889Z,100505.13
2023-03-16T14:34:30.845Z,100512.25
2023-03-16T14:37:09.782Z,100507.91
2023-03-16T14:39:37.790Z,100493.09
2023-03-16T14:42:07.827Z,100495.75
2023-03-16T14:44:38.292Z,100496.88
2023-03-16T14:47:08.180Z,100491.56
2023-03-16T14:49:38.364Z,100491.41
2023-03-16T14:52:09.360Z,100494.56
2023-03-16T14:54:37.344Z,100490.44
2023-03-16T14:57:06.612Z,100488.53
2023-03-16T14:59:34.949Z,100489.97
2023-03-16T15:02:06.858Z,100484.47
2023-03-16T15:04:38.227Z,100474.97
2023-03-16T15:07:22.309Z,100473.06
2023-03-16T15:09:55.174Z,100470.19
2023-03-16T15:12:25.099Z,100469.38
2023-03-16T15:15:10.749Z,100462.47
2023-03-16T15:17:38.878Z,100477.03
2023-03-16T15:20:10.116Z,100468.94
2023-03-16T15:22:39.447Z,100469.25
2023-03-16T15:25:20.640Z,100470.44
2023-03-16T15:27:49.243Z,100453.63
2023-03-16T15:30:18.907Z,100462.28
2023-03-16T15:32:47.181Z,100451.56
2023-03-16T15:35:16.594Z,100451.06
2023-03-16T15:37:44.713Z,100464.97
2023-03-16T15:40:21.871Z,100466.59
2023-03-16T15:42:49.853Z,100466.50
2023-03-16T15:45:20.628Z,100469.38
2023-03-16T15:47:49.700Z,100459.53
2023-03-16T15:50:21.782Z,100445.22
2023-03-16T15:52:54.915Z,100444.06
2023-03-16T15:55:25.037Z,100437.25
2023-03-16T15:57:58.929Z,100435.03
2023-03-16T16:00:33.076Z,100432.03
2023-03-16T16:03:02.263Z,100427.59
2023-03-16T16:05:32.540Z,100431.16
2023-03-16T16:08:00.776Z,100418.91
2023-03-16T16:10:29.618Z,100412.50
2023-03-16T16:12:58.173Z,100412.44
2023-03-16T16:15:29.596Z,100408.09
2023-03-16T16:18:19.661Z,100407.41
2023-03-16T16:20:48.280Z,100412.63
2023-03-16T16:23:16.106Z,100405.41
2023-03-16T16:25:44.836Z,100405.97
2023-03-16T16:28:16.450Z,100403.75
2023-03-16T16:30:44.943Z,100400.34
2023-03-16T16:33:26.585Z,100395.59
2023-03-16T16:35:57.345Z,100398.25
2023-03-16T16:38:25.832Z,100370.75
2023-03-16T16:40:57.181Z,100394.22
2023-03-16T16:43:33.242Z,100385.91
2023-03-16T16:46:03.230Z,100391.63
2023-03-16T16:48:33.699Z,100391.91
2023-03-16T16:51:02.858Z,100398.31
2023-03-16T16:53:30.989Z,100395.97
2023-03-16T16:55:58.812Z,100390.00
2023-03-16T16:58:27.197Z,100398.91
2023-03-16T17:00:58.078Z,100396.13
2023-03-16T17:03:27.446Z,100397.81
2023-03-16T17:05:57.799Z,100377.50
2023-03-16T17:08:27.463Z,100388.09
2023-03-16T17:10:55.622Z,100382.81
2023-03-16T17:13:28.343Z,100389.50
2023-03-16T17:15:56.428Z,100382.56
2023-03-16T17:18:24.392Z,100384.22
2023-03-16T17:20:52.272Z,100387.84
2023-03-16T17:23:30.386Z,100392.03
2023-03-16T17:26:00.192Z,100395.63
2023-03-16T17:28:30.736Z,100391.78
2023-03-16T17:30:58.764Z,100394.28
2023-03-16T17:33:29.299Z,100383.44
2023-03-16T17:35:57.223Z,100386.78
2023-03-16T17:38:27.279Z,100389.97
2023-03-16T17:40:56.617Z,100394.84
2023-03-16T17:43:24.987Z,100393.16
2023-03-16T17:45:53.387Z,100396.25
2023-03-16T17:48:24.044Z,100409.03
2023-03-16T17:50:52.456Z,100393.44
2023-03-16T17:53:21.685Z,100401.50
2023-03-16T17:55:49.691Z,100404.28
2023-03-16T17:58:26.839Z,100398.44
2023-03-16T18:00:55.937Z,100413.44
2023-03-16T18:03:29.345Z,100403.56
2023-03-16T18:05:58.544Z,100391.44
2023-03-16T18:08:28.618Z,100406.72
2023-03-16T18:10:59.048Z,100404.66
2023-03-16T18:13:32.514Z,100408.41
2023-03-16T18:16:01.337Z,100413.13
2023-03-16T18:18:32.772Z,100407.28
2023-03-16T18:21:01.853Z,100412.84
2023-03-16T18:23:31.670Z,100417.28
2023-03-16T18:26:02.130Z,100415.03
2023-03-16T18:28:32.187Z,100419.75
2023-03-16T18:31:01.359Z,100413.50
2023-03-16T18:33:31.429Z,100403.19
2023-03-16T18:36:02.562Z,100406.81
2023-03-16T18:38:33.151Z,100404.34
2023-03-16T18:41:03.872Z,100415.28
2023-03-16T18:43:33.021Z,100404.72
2023-03-16T18:46:00.783Z,100413.63
2023-03-16T18:48:31.099Z,100408.06
2023-03-16T18:50:59.093Z,100406.66
2023-03-16T18:53:28.892Z,100404.03
2023-03-16T18:55:57.697Z,100403.31
2023-03-16T18:58:25.873Z,100400.94
2023-03-16T19:00:56.940Z,100379.50
2023-03-16T19:03:27.384Z,100403.03
2023-03-16T19:05:57.089Z,100408.25
2023-03-16T19:08:26.466Z,100396.88
2023-03-16T19:10:57.377Z,100390.72
2023-03-16T19:13:26.248Z,100394.91
2023-03-16T19:15:57.813Z,100401.28
2023-03-16T19:18:26.134Z,100400.56
2023-03-16T19:20:55.173Z,100399.75
2023-03-16T19:23:27.219Z,100396.41
2023-03-16T19:25:55.945Z,100402.38
2023-03-16T19:28:29.025Z,100389.56
2023-03-16T19:30:58.222Z,100395.97
2023-03-16T19:33:27.911Z,100400.81
2023-03-16T19:35:57.106Z,100379.09
2023-03-16T19:38:26.357Z,100398.88
2023-03-16T19:40:56.972Z,100401.78
2023-03-16T19:43:26.052Z,100383.09
2023-03-16T19:45:54.946Z,100402.28
2023-03-16T19:48:31.664Z,100393.97
2023-03-16T19:51:00.390Z,100391.72
2023-03-16T19:53:28.371Z,100389.38
2023-03-16T19:55:56.216Z,100391.03
2023-03-16T19:58:30.783Z,100388.66
2023-03-16T20:00:59.166Z,100387.41
2023-03-16T20:03:29.012Z,100387.41
2023-03-16T20:05:56.789Z,100378.81
2023-03-16T20:08:26.824Z,100372.13
2023-03-16T20:11:00.843Z,100344.69
2023-03-16T20:13:31.253Z,100352.72
2023-03-16T20:15:59.285Z,100357.09
2023-03-16T20:18:29.329Z,100358.88
2023-03-16T20:20:57.116Z,100356.13
2023-03-16T20:23:26.507Z,100356.81
2023-03-16T20:25:56.546Z,100348.91
2023-03-16T20:28:26.575Z,100347.50
2023-03-16T20:30:54.484Z,100346.13
2023-03-16T20:33:25.215Z,100339.16
2023-03-16T20:35:54.469Z,100336.66
2023-03-16T20:38:22.919Z,100325.28
2023-03-16T20:40:52.577Z,100319.28
2023-03-16T20:43:25.132Z,100315.25
2023-03-16T20:45:54.378Z,100313.44
2023-03-16T20:48:25.386Z,100322.72
2023-03-16T20:50:56.107Z,100320.22
2023-03-16T20:53:24.584Z,100317.72
2023-03-16T20:55:54.459Z,100317.97
2023-03-16T20:58:25.471Z,100309.09
2023-03-16T21:00:57.486Z,100309.34
2023-03-16T21:03:27.655Z,100307.09
2023-03-16T21:05:59.964Z,100299.91
2023-03-16T21:08:27.917Z,100301.56
2023-03-16T21:10:56.672Z,100293.38
2023-03-16T21:13:30.412Z,100297.13
2023-03-16T21:16:01.419Z,100273.25
2023-03-16T21:18:29.299Z,100282.41
2023-03-16T21:20:58.957Z,100287.56
2023-03-16T21:23:26.785Z,100284.38
2023-03-16T21:25:56.854Z,100285.22
2023-03-16T21:28:25.603Z,100276.47
2023-03-16T21:30:55.258Z,100271.19
2023-03-16T21:33:29.814Z,100277.56
2023-03-16T21:35:59.770Z,100283.81
2023-03-16T21:38:29.232Z,100285.22
2023-03-16T21:40:57.266Z,100271.03
2023-03-16T21:43:25.873Z,100254.66
2023-03-16T21:45:55.078Z,100262.69
2023-03-16T21:48:25.199Z,100270.13
2023-03-16T21:50:54.451Z,100260.41
2023-03-16T21:53:27.190Z,100260.41
2023-03-16T21:55:55.928Z,100261.97
2023-03-16T21:58:24.921Z,100242.47
2023-03-16T22:00:54.675Z,100245.56
2023-03-16T22:03:37.832Z,100237.50
2023-03-16T22:06:16.002Z,100236.41
2023-03-16T22:08:45.202Z,100242.47
2023-03-16T22:11:17.258Z,100231.81
2023-03-16T22:13:45.065Z,100231.53
2023-03-16T22:16:15.974Z,100229.97
2023-03-16T22:18:45.817Z,100234.75
2023-03-16T22:21:25.027Z,100224.19
2023-03-16T22:23:54.695Z,100206.78
2023-03-16T22:26:24.183Z,100223.63
2023-03-16T22:28:53.076Z,100224.88
2023-03-16T22:31:26.302Z,100210.19
2023-03-16T22:33:54.408Z,100206.00
2023-03-16T22:36:23.439Z,100203.19
2023-03-16T22:38:59.418Z,100201.25
2023-03-16T22:41:27.509Z,100197.41
2023-03-16T22:43:55.294Z,100197.13
2023-03-16T22:46:25.055Z,100198.53
2023-03-16T22:48:54.100Z,100192.72
2023-03-16T22:51:27.134Z,100196.56
2023-03-16T22:53:59.939Z,100195.47
2023-03-16T22:56:29.623Z,100191.41
2023-03-16T22:59:01.078Z,100191.56
2023-03-16T23:01:33.554Z,100205.75
2023-03-16T23:04:01.813Z,100191.75
2023-03-16T23:06:32.559Z,100202.00
2023-03-16T23:09:02.294Z,100195.88
2023-03-16T23:11:32.646Z,100202.81
2023-03-16T23:14:00.961Z,100185.50
2023-03-16T23:16:32.196Z,100193.81
2023-03-16T23:19:01.664Z,100175.16
2023-03-16T23:21:31.885Z,100165.31
2023-03-16T23:24:04.363Z,100181.34
2023-03-16T23:26:33.102Z,100158.09
2023-03-16T23:29:01.001Z,100181.47
2023-03-16T23:31:28.843Z,100171.31
2023-03-16T23:33:56.957Z,100173.84
2023-03-16T23:36:26.047Z,100162.75
2023-03-16T23:38:54.178Z,100167.44
2023-03-16T23:41:25.208Z,100181.34
2023-03-16T23:43:54.009Z,100186.34
2023-03-16T23:46:24.798Z,100160.47
2023-03-16T23:48:54.925Z,100185.50
2023-03-16T23:51:27.123Z,100184.66
2023-03-16T23:53:55.091Z,100174.66
2023-03-16T23:56:24.609Z,100175.50
2023-03-16T23:58:52.328Z,100161.50
